Tuesday, March 31, 2015
09:47 UTC
  |  Log In   |  Register Free
Airport Search:

Durant Regional - Eaker Field Airport
(KDUA)

Durant Regional - Eaker Field Airport Diagram
No Airport Diagram Available

FAA data valid effective March 05, 2015 - April 30, 2015 (unless otherwise noted).

 
 
 
 
 
 
 
 
 
 
 
 
 
 

Current Aviation Weather for Durant Regional - Eaker Field Airport (KDUA)

The most recent METAR observation for KDUA was updated at: 0908
METAR Summary (Translated METAR)
KDUA
310855Z AUTO 16005KT 1 1/2SM BR VV007 15/15 A2998 RMK AO2
KGYI
310855Z AUTO 14007KT 10SM CLR 19/18 A2998 RMK AO2 T01880180
(19.5 nm SW from KDUA)
KAQR
310855Z AUTO 00000KT 7SM SCT043 17/16 A2999 RMK AO2
(30 nm NE from KDUA)
TAF
No TAF information found within 50 nm of KDUA
  Airport Weather Conditions for KDUA

 Current Weather at DUA
59° F
Fog/Mist
South winds at 5.8 mph
DUA NOAA Radar

Pressure: 29.98 in
Humidity: 100%
Wind: South at 5.8 MPH (5 KT)
Dew Point: 59.0°F
Visibility: 1.50 mi


Airport Weather Forecast for KDUA

Translated METAR and TAF for KDUA
Translated METAR for KDUA (0946 UTC 31 March 2015)
found at http://aviationweather.gov/adds/metars/
 
METAR text: KDUA 310935Z AUTO 16005KT 3SM BR CLR 15/15 A2996 RMK AO2
Conditions at: KDUA (DURANT , OK, US) observed 0935 UTC 31 March 2015
Temperature: 15.0°C (59°F)
Dewpoint: 15.0°C (59°F) [RH = 100%]
Pressure (altimeter): 29.96 inches Hg (1014.6 mb)
Winds: from the SSE (160 degrees) at 6 MPH (5 knots; 2.6 m/s)
Visibility: 3 miles (5 km)
Ceiling: at least 12,000 feet AGL
Clouds: sky clear below 12,000 feet AGL
Weather: BR  (mist)
Translated TAF for KDUA

There is no translated TAF available for this airport

Find All Airport Services Find A Hotel Find A Rental Car Find A Golf Course Find A Restaurant $100 Hamburger



FBO's on the Field
FBO Company Facility Photos Services Transportation Aviation Fuel Prices: Prices include tax
Catering Weather Repair Courtesy Rental Type 100LL JetA JetA+ MOGAS 8087
 
D/W Aviation

This FBO has not yet been rated
FS:Avfuel
Last Updated: Mar-30
Login to update fuel prices
SS:
Contact D/W AviationMore FBO Information
 
Add another FBO Facility Photos Catering Weather Repair Courtesy Rental Type 100LL JetA JetA+ MOGAS 8087
Services Transportation Aviation Fuel Prices: Prices include tax


model-print
model-print
model-print
model-print